createdAt,value
2018-01-25T00:00:43.714Z,98.03
2018-01-25T00:01:43.707Z,99.99
2018-01-25T00:02:43.695Z,99.75
2018-01-25T00:03:43.702Z,99.99
2018-01-25T00:04:43.692Z,99.99
2018-01-25T00:05:43.676Z,99.99
2018-01-25T00:06:43.665Z,99.99
2018-01-25T00:07:43.662Z,98.61
2018-01-25T00:08:43.649Z,97.27
2018-01-25T00:09:43.650Z,95.61
2018-01-25T00:10:43.635Z,90.84
2018-01-25T00:11:43.624Z,90.17
2018-01-25T00:12:43.619Z,86.74
2018-01-25T00:13:43.606Z,90.08
2018-01-25T00:14:43.597Z,91.60
2018-01-25T00:15:43.631Z,87.84
2018-01-25T00:16:43.585Z,92.89
2018-01-25T00:17:43.578Z,91.36
2018-01-25T00:18:43.566Z,89.41
2018-01-25T00:19:43.559Z,89.79
2018-01-25T00:20:43.554Z,91.51
2018-01-25T00:21:43.545Z,86.94
2018-01-25T00:22:43.538Z,88.46
2018-01-25T00:23:43.530Z,88.70
2018-01-25T00:24:43.520Z,85.37
2018-01-25T00:25:43.511Z,85.85
2018-01-25T00:26:43.501Z,83.85
2018-01-25T00:27:43.500Z,84.23
2018-01-25T00:28:43.483Z,83.09
2018-01-25T00:29:43.469Z,82.32
2018-01-25T00:30:43.462Z,83.28
2018-01-25T00:31:43.464Z,81.47
2018-01-25T00:32:43.449Z,80.33
2018-01-25T00:33:43.440Z,81.28
2018-01-25T00:34:43.454Z,77.28
2018-01-25T00:35:43.424Z,77.47
2018-01-25T00:36:43.420Z,81.09
2018-01-25T00:37:43.407Z,77.24
2018-01-25T00:38:43.394Z,75.76
2018-01-25T00:39:43.388Z,76.04
2018-01-25T00:40:43.384Z,78.48
2018-01-25T00:41:43.371Z,75.95
2018-01-25T00:42:43.361Z,77.28
2018-01-25T00:43:43.354Z,75.67
2018-01-25T00:44:43.343Z,78.10
2018-01-25T00:45:43.366Z,78.48
2018-01-25T00:46:43.338Z,77.15
2018-01-25T00:47:43.315Z,77.05
2018-01-25T00:48:43.310Z,75.62
2018-01-25T00:49:43.293Z,75.15
2018-01-25T00:50:43.285Z,75.34
2018-01-25T00:51:43.279Z,75.34
2018-01-25T00:52:43.272Z,74.29
2018-01-25T00:53:43.279Z,73.53
2018-01-25T00:54:43.265Z,74.39
2018-01-25T00:55:43.246Z,75.62
2018-01-25T00:56:43.233Z,75.05
2018-01-25T00:57:43.223Z,73.82
2018-01-25T00:58:43.217Z,75.05
2018-01-25T00:59:43.207Z,74.77
2018-01-25T01:00:43.193Z,74.67
2018-01-25T01:01:43.203Z,73.91
2018-01-25T01:02:43.186Z,73.72
2018-01-25T01:03:43.176Z,73.91
2018-01-25T01:04:43.164Z,74.67
2018-01-25T01:05:43.195Z,74.20
2018-01-25T01:06:43.142Z,72.86
2018-01-25T01:07:43.167Z,73.63
2018-01-25T01:08:43.124Z,73.25
2018-01-25T01:09:43.143Z,73.25
2018-01-25T01:10:43.110Z,73.15
2018-01-25T01:11:43.136Z,73.25
2018-01-25T01:12:43.091Z,73.91
2018-01-25T01:13:43.080Z,74.87
2018-01-25T01:14:43.071Z,75.05
2018-01-25T01:15:43.072Z,73.44
2018-01-25T01:16:43.072Z,72.20
2018-01-25T01:17:43.049Z,73.15
2018-01-25T01:18:43.033Z,74.10
2018-01-25T01:19:43.030Z,73.91
2018-01-25T01:20:43.014Z,74.10
2018-01-25T01:21:43.015Z,73.63
2018-01-25T01:22:42.995Z,72.96
2018-01-25T01:23:43.013Z,72.11
2018-01-25T01:24:42.986Z,71.91
2018-01-25T01:25:42.968Z,72.58
2018-01-25T01:26:42.953Z,72.01
2018-01-25T01:27:42.950Z,73.72
2018-01-25T01:28:42.962Z,73.34
2018-01-25T01:29:42.946Z,73.91
2018-01-25T01:30:42.928Z,74.82
2018-01-25T01:31:42.913Z,74.26
2018-01-25T01:32:42.906Z,73.06
2018-01-25T01:33:42.891Z,74.54
2018-01-25T01:34:42.885Z,75.24
2018-01-25T01:35:42.871Z,74.20
2018-01-25T01:36:42.881Z,72.58
2018-01-25T01:37:42.854Z,71.91
2018-01-25T01:38:42.848Z,73.15
2018-01-25T01:39:42.839Z,72.49
2018-01-25T01:40:42.829Z,72.74
2018-01-25T01:41:42.816Z,73.02
2018-01-25T01:42:42.807Z,73.34
2018-01-25T01:43:42.800Z,73.34
2018-01-25T01:44:42.791Z,72.20
2018-01-25T01:45:42.780Z,71.63
2018-01-25T01:46:42.769Z,71.82
2018-01-25T01:47:42.758Z,72.20
2018-01-25T01:48:42.749Z,73.82
2018-01-25T01:49:42.742Z,74.35
2018-01-25T01:50:42.735Z,73.88
2018-01-25T01:51:42.731Z,73.97
2018-01-25T01:52:42.715Z,73.88
2018-01-25T01:53:42.709Z,75.59
2018-01-25T01:54:42.695Z,74.44
2018-01-25T01:55:42.683Z,72.92
2018-01-25T01:56:42.688Z,73.34
2018-01-25T01:57:42.670Z,73.49
2018-01-25T01:58:42.659Z,73.78
2018-01-25T01:59:42.647Z,74.26
2018-01-25T02:00:42.670Z,73.88
2018-01-25T02:01:42.636Z,73.02
2018-01-25T02:02:42.630Z,75.30
2018-01-25T02:03:42.610Z,73.69
2018-01-25T02:04:42.616Z,72.55
2018-01-25T02:05:42.608Z,71.97
2018-01-25T02:06:42.602Z,71.88
2018-01-25T02:07:42.578Z,72.64
2018-01-25T02:08:42.565Z,72.83
2018-01-25T02:09:42.559Z,72.35
2018-01-25T02:10:42.545Z,74.92
2018-01-25T02:11:42.539Z,75.02
2018-01-25T02:12:42.529Z,74.26
2018-01-25T02:13:42.527Z,74.16
2018-01-25T02:14:42.509Z,73.78
2018-01-25T02:15:42.500Z,75.02
2018-01-25T02:16:42.490Z,74.26
2018-01-25T02:17:42.477Z,75.11
2018-01-25T02:18:42.473Z,77.20
2018-01-25T02:19:42.466Z,77.01
2018-01-25T02:20:42.455Z,73.88
2018-01-25T02:21:42.444Z,72.92
2018-01-25T02:22:42.459Z,74.26
2018-01-25T02:23:42.438Z,74.16
2018-01-25T02:24:42.416Z,74.54
2018-01-25T02:25:42.425Z,72.64
2018-01-25T02:26:42.455Z,73.21
2018-01-25T02:27:42.394Z,74.16
2018-01-25T02:28:42.377Z,73.40
2018-01-25T02:29:42.371Z,73.11
2018-01-25T02:30:42.361Z,72.45
2018-01-25T02:31:42.349Z,73.21
2018-01-25T02:32:42.341Z,73.02
2018-01-25T02:33:42.332Z,71.97
2018-01-25T02:34:42.323Z,71.97
2018-01-25T02:35:42.318Z,72.07
2018-01-25T02:36:42.302Z,72.16
2018-01-25T02:37:42.297Z,72.64
2018-01-25T02:38:42.294Z,73.02
2018-01-25T02:39:42.282Z,73.11
2018-01-25T02:40:42.263Z,73.02
2018-01-25T02:41:42.256Z,72.83
2018-01-25T02:42:42.247Z,73.49
2018-01-25T02:43:42.240Z,72.55
2018-01-25T02:44:42.231Z,72.07
2018-01-25T02:45:42.220Z,72.64
2018-01-25T02:46:42.209Z,72.74
2018-01-25T02:47:42.199Z,72.92
2018-01-25T02:48:42.185Z,73.97
2018-01-25T02:49:42.186Z,72.07
2018-01-25T02:50:42.171Z,72.26
2018-01-25T02:51:42.160Z,72.35
2018-01-25T02:52:42.148Z,73.30
2018-01-25T02:53:42.144Z,73.02
2018-01-25T02:54:42.128Z,73.11
2018-01-25T02:55:42.123Z,72.55
2018-01-25T02:56:42.118Z,73.69
2018-01-25T02:57:42.104Z,72.45
2018-01-25T02:58:42.095Z,72.92
2018-01-25T02:59:42.082Z,72.74
2018-01-25T03:00:42.079Z,73.30
2018-01-25T03:01:42.096Z,72.26
2018-01-25T03:02:42.055Z,72.26
2018-01-25T03:03:42.046Z,72.26
2018-01-25T03:04:42.047Z,71.97
2018-01-25T03:05:42.032Z,72.16
2018-01-25T03:06:42.016Z,71.97
2018-01-25T03:07:42.009Z,72.35
2018-01-25T03:08:42.006Z,71.78
2018-01-25T03:09:41.991Z,72.35
2018-01-25T03:10:41.986Z,72.32
2018-01-25T03:11:41.970Z,71.78
2018-01-25T03:12:41.970Z,72.26
2018-01-25T03:13:41.952Z,72.26
2018-01-25T03:14:41.943Z,72.16
2018-01-25T03:15:41.934Z,72.07
2018-01-25T03:16:41.927Z,71.88
2018-01-25T03:17:41.915Z,72.07
2018-01-25T03:18:41.905Z,72.45
2018-01-25T03:19:41.898Z,72.07
2018-01-25T03:20:41.886Z,72.35
2018-01-25T03:21:41.877Z,73.40
2018-01-25T03:22:41.870Z,72.55
2018-01-25T03:23:41.855Z,73.21
2018-01-25T03:24:41.847Z,72.26
2018-01-25T03:25:41.839Z,72.16
2018-01-25T03:26:41.830Z,72.26
2018-01-25T03:27:41.816Z,71.88
2018-01-25T03:28:41.812Z,72.07
2018-01-25T03:29:41.800Z,72.55
2018-01-25T03:30:41.787Z,71.97
2018-01-25T03:31:41.780Z,72.07
2018-01-25T03:32:41.774Z,72.26
2018-01-25T03:33:41.760Z,72.26
2018-01-25T03:34:41.752Z,71.59
2018-01-25T03:35:41.745Z,72.45
2018-01-25T03:36:41.749Z,72.35
2018-01-25T03:37:41.737Z,71.59
2018-01-25T03:38:41.709Z,71.69
2018-01-25T03:39:41.708Z,71.88
2018-01-25T03:40:41.692Z,72.26
2018-01-25T03:41:41.689Z,71.97
2018-01-25T03:42:41.699Z,72.07
2018-01-25T03:43:41.687Z,72.13
2018-01-25T03:44:41.662Z,72.07
2018-01-25T03:45:41.659Z,72.16
2018-01-25T03:46:41.642Z,71.97
2018-01-25T03:47:41.632Z,72.32
2018-01-25T03:48:41.630Z,72.35
2018-01-25T03:49:41.612Z,72.16
2018-01-25T03:50:41.606Z,72.13
2018-01-25T03:51:41.596Z,72.13
2018-01-25T03:52:41.580Z,72.41
2018-01-25T03:53:41.574Z,72.41
2018-01-25T03:54:41.561Z,72.32
2018-01-25T03:55:41.551Z,72.79
2018-01-25T03:56:41.569Z,73.46
2018-01-25T03:57:41.539Z,73.36
2018-01-25T03:58:41.530Z,72.60
2018-01-25T03:59:41.514Z,72.32
2018-01-25T04:00:41.502Z,73.08
2018-01-25T04:01:41.495Z,73.27
2018-01-25T04:02:41.489Z,73.27
2018-01-25T04:03:41.490Z,73.18
2018-01-25T04:04:41.494Z,72.51
2018-01-25T04:05:41.456Z,72.60
2018-01-25T04:06:41.448Z,72.79
2018-01-25T04:07:41.440Z,72.70
2018-01-25T04:08:41.442Z,72.60
2018-01-25T04:09:41.439Z,73.18
2018-01-25T04:10:41.409Z,72.89
2018-01-25T04:11:41.412Z,73.18
2018-01-25T04:12:41.409Z,73.18
2018-01-25T04:13:41.379Z,73.27
2018-01-25T04:14:41.374Z,73.18
2018-01-25T04:15:41.383Z,72.13
2018-01-25T04:16:41.351Z,72.22
2018-01-25T04:17:41.351Z,72.22
2018-01-25T04:18:41.337Z,72.51
2018-01-25T04:19:41.325Z,72.41
2018-01-25T04:20:41.316Z,72.89
2018-01-25T04:21:41.305Z,73.08
2018-01-25T04:22:41.305Z,72.99
2018-01-25T04:23:41.283Z,72.03
2018-01-25T04:24:41.278Z,72.22
2018-01-25T04:25:41.267Z,73.08
2018-01-25T04:26:41.255Z,73.46
2018-01-25T04:27:41.248Z,72.79
2018-01-25T04:28:41.238Z,72.79
2018-01-25T04:29:41.248Z,74.22
2018-01-25T04:30:41.219Z,73.93
2018-01-25T04:31:41.208Z,74.41
2018-01-25T04:32:41.195Z,74.41
2018-01-25T04:33:41.188Z,74.51
2018-01-25T04:34:41.178Z,73.18
2018-01-25T04:35:41.177Z,73.36
2018-01-25T04:36:41.159Z,73.18
2018-01-25T04:37:41.152Z,73.36
2018-01-25T04:38:41.138Z,72.79
2018-01-25T04:39:41.138Z,73.36
2018-01-25T04:40:41.123Z,73.18
2018-01-25T04:41:41.114Z,72.99
2018-01-25T04:44:15.191Z,72.70
2018-01-25T04:45:15.173Z,72.32
2018-01-25T04:47:08.889Z,73.46
2018-01-25T04:48:08.876Z,73.74
2018-01-25T04:50:02.536Z,73.65
2018-01-25T04:51:02.500Z,73.55
2018-01-25T04:52:02.496Z,73.65
2018-01-25T04:53:02.484Z,74.60
2018-01-25T04:54:02.476Z,73.93
2018-01-25T04:55:02.463Z,72.89
2018-01-25T04:56:02.455Z,73.27
2018-01-25T04:57:02.454Z,72.99
2018-01-25T04:58:02.438Z,73.93
2018-01-25T04:59:02.429Z,74.31
2018-01-25T05:00:02.417Z,74.41
2018-01-25T05:01:02.406Z,73.65
2018-01-25T05:02:02.399Z,73.46
2018-01-25T05:03:02.386Z,73.27
2018-01-25T05:04:02.375Z,73.27
2018-01-25T05:05:02.406Z,73.46
2018-01-25T05:06:02.359Z,74.31
2018-01-25T05:07:02.352Z,73.84
2018-01-25T05:08:02.342Z,73.18
2018-01-25T05:09:02.337Z,72.89
2018-01-25T05:10:02.338Z,73.08
2018-01-25T05:11:02.308Z,74.12
2018-01-25T05:12:02.302Z,73.84
2018-01-25T05:13:02.292Z,73.46
2018-01-25T05:14:02.282Z,74.03
2018-01-25T05:15:02.274Z,74.41
2018-01-25T05:16:02.262Z,73.46
2018-01-25T05:17:02.251Z,74.12
2018-01-25T05:18:02.255Z,73.74
2018-01-25T05:19:02.238Z,74.12
2018-01-25T05:20:02.223Z,73.93
2018-01-25T05:21:02.215Z,73.74
2018-01-25T05:22:02.209Z,73.18
2018-01-25T05:23:02.196Z,74.22
2018-01-25T05:24:02.185Z,73.84
2018-01-25T05:25:02.173Z,74.98
2018-01-25T05:26:02.162Z,74.60
2018-01-25T05:27:02.157Z,74.41
2018-01-25T05:28:02.152Z,74.31
2018-01-25T05:29:02.145Z,74.31
2018-01-25T05:30:02.126Z,73.55
2018-01-25T05:31:02.120Z,74.98
2018-01-25T05:32:02.113Z,75.07
2018-01-25T05:33:02.104Z,74.88
2018-01-25T05:34:02.124Z,74.41
2018-01-25T05:35:02.086Z,74.88
2018-01-25T05:36:02.070Z,74.51
2018-01-25T05:37:02.065Z,74.31
2018-01-25T05:38:02.051Z,73.36
2018-01-25T05:39:02.039Z,73.84
2018-01-25T05:40:02.030Z,74.12
2018-01-25T05:41:02.030Z,74.51
2018-01-25T05:42:02.011Z,74.98
2018-01-25T05:43:02.000Z,74.22
2018-01-25T05:44:01.994Z,74.41
2018-01-25T05:45:01.989Z,73.84
2018-01-25T05:46:01.973Z,73.84
2018-01-25T05:47:01.965Z,74.88
2018-01-25T05:48:01.962Z,74.88
2018-01-25T05:49:01.940Z,74.60
2018-01-25T05:50:01.936Z,74.60
2018-01-25T05:51:01.923Z,74.88
2018-01-25T05:52:01.938Z,74.03
2018-01-25T05:53:01.927Z,74.98
2018-01-25T05:54:01.898Z,73.65
2018-01-25T05:55:01.893Z,73.36
2018-01-25T05:56:01.877Z,74.31
2018-01-25T05:57:01.873Z,74.12
2018-01-25T05:58:01.858Z,74.03
2018-01-25T05:59:01.848Z,73.93
2018-01-25T06:00:01.839Z,73.74
2018-01-25T06:01:01.831Z,73.27
2018-01-25T06:02:01.830Z,74.12
2018-01-25T06:03:01.810Z,73.74
2018-01-25T06:04:01.805Z,73.74
2018-01-25T06:05:01.800Z,74.60
2018-01-25T06:06:01.777Z,75.07
2018-01-25T06:07:01.770Z,75.17
2018-01-25T06:08:01.764Z,74.60
2018-01-25T06:09:01.759Z,74.69
2018-01-25T06:10:01.816Z,74.60
2018-01-25T06:11:01.735Z,74.41
2018-01-25T06:12:01.740Z,73.84
2018-01-25T06:13:01.713Z,75.07
2018-01-25T06:14:01.711Z,74.88
2018-01-25T06:15:01.706Z,74.22
2018-01-25T06:16:01.684Z,74.51
2018-01-25T06:17:01.672Z,74.98
2018-01-25T06:18:01.772Z,74.60
2018-01-25T06:19:01.652Z,74.98
2018-01-25T06:20:01.652Z,74.98
2018-01-25T06:21:01.659Z,74.60
2018-01-25T06:22:01.633Z,75.26
2018-01-25T06:23:01.622Z,75.26
2018-01-25T06:24:01.605Z,75.17
2018-01-25T06:25:01.595Z,74.69
2018-01-25T06:26:01.587Z,75.26
2018-01-25T06:27:01.575Z,75.26
2018-01-25T06:28:01.569Z,74.88
2018-01-25T06:29:01.701Z,75.64
2018-01-25T06:30:01.548Z,75.51
2018-01-25T06:31:01.538Z,75.60
2018-01-25T06:32:01.531Z,75.51
2018-01-25T06:33:01.526Z,75.32
2018-01-25T06:34:01.508Z,75.04
2018-01-25T06:35:01.497Z,74.47
2018-01-25T06:36:01.492Z,75.04
2018-01-25T06:37:01.475Z,75.04
2018-01-25T06:38:01.476Z,75.04
2018-01-25T06:39:01.459Z,74.56
2018-01-25T06:40:01.447Z,74.56
2018-01-25T06:41:01.441Z,74.56
2018-01-25T06:42:01.430Z,73.23
2018-01-25T06:43:01.419Z,72.66
2018-01-25T06:44:01.415Z,73.80
2018-01-25T06:45:01.416Z,74.08
2018-01-25T06:46:01.450Z,73.14
2018-01-25T06:47:01.400Z,74.18
2018-01-25T06:48:01.372Z,73.90
2018-01-25T06:49:01.376Z,73.71
2018-01-25T06:50:01.386Z,73.80
2018-01-25T06:51:01.346Z,74.08
2018-01-25T06:52:01.336Z,73.80
2018-01-25T06:53:01.321Z,74.08
2018-01-25T06:54:01.314Z,72.75
2018-01-25T06:55:01.298Z,73.80
2018-01-25T06:56:01.289Z,73.90
2018-01-25T06:57:01.288Z,74.08
2018-01-25T06:58:01.278Z,73.71
2018-01-25T06:59:01.269Z,73.23
2018-01-25T07:00:01.305Z,72.95
2018-01-25T07:01:01.241Z,72.66
2018-01-25T07:02:01.249Z,72.85
2018-01-25T07:03:01.228Z,72.75
2018-01-25T07:04:01.215Z,73.23
2018-01-25T07:05:01.217Z,73.14
2018-01-25T07:06:01.208Z,72.95
2018-01-25T07:07:01.188Z,73.71
2018-01-25T07:08:01.169Z,73.52
2018-01-25T07:09:01.166Z,73.71
2018-01-25T07:10:01.157Z,73.99
2018-01-25T07:11:01.144Z,73.90
2018-01-25T07:12:01.134Z,73.61
2018-01-25T07:13:01.126Z,73.80
2018-01-25T07:14:01.112Z,74.56
2018-01-25T07:15:01.105Z,73.14
2018-01-25T07:16:01.095Z,73.14
2018-01-25T07:17:01.084Z,73.71
2018-01-25T07:18:01.077Z,72.95
2018-01-25T07:19:01.123Z,73.80
2018-01-25T07:20:01.053Z,73.80
2018-01-25T07:21:01.046Z,73.90
2018-01-25T07:22:01.044Z,73.99
2018-01-25T07:23:01.061Z,73.61
2018-01-25T07:24:01.035Z,74.18
2018-01-25T07:25:01.029Z,73.80
2018-01-25T07:26:01.002Z,73.99
2018-01-25T07:27:01.000Z,73.80
2018-01-25T07:28:00.981Z,73.33
2018-01-25T07:29:00.994Z,73.80
2018-01-25T07:30:00.966Z,73.80
2018-01-25T07:31:00.960Z,73.61
2018-01-25T07:32:00.949Z,73.33
2018-01-25T07:33:00.930Z,73.14
2018-01-25T07:34:00.923Z,73.71
2018-01-25T07:35:00.907Z,74.27
2018-01-25T07:36:00.920Z,73.61
2018-01-25T07:37:00.887Z,74.37
2018-01-25T07:38:00.879Z,73.80
2018-01-25T07:39:00.869Z,75.23
2018-01-25T07:40:00.855Z,76.37
2018-01-25T07:41:00.850Z,75.13
2018-01-25T07:42:00.836Z,75.04
2018-01-25T07:43:00.827Z,74.85
2018-01-25T07:44:00.821Z,75.04
2018-01-25T07:45:00.818Z,74.85
2018-01-25T07:46:00.800Z,76.18
2018-01-25T07:47:00.789Z,75.13
2018-01-25T07:48:00.781Z,74.47
2018-01-25T07:49:00.770Z,75.04
2018-01-25T07:50:00.756Z,75.32
2018-01-25T07:51:00.748Z,75.70
2018-01-25T07:52:00.748Z,75.32
2018-01-25T07:53:00.739Z,74.56
2018-01-25T07:54:00.722Z,75.23
2018-01-25T07:55:00.717Z,76.08
2018-01-25T07:56:00.702Z,76.46
2018-01-25T07:57:00.705Z,76.08
2018-01-25T07:58:00.681Z,75.70
2018-01-25T07:59:00.680Z,75.99
2018-01-25T08:00:00.659Z,75.70
2018-01-25T08:01:00.652Z,76.18
2018-01-25T08:02:00.659Z,76.18
2018-01-25T08:03:00.640Z,76.46
2018-01-25T08:04:00.646Z,77.12
2018-01-25T08:05:00.636Z,76.27
2018-01-25T08:06:00.605Z,76.37
2018-01-25T08:07:00.602Z,75.04
2018-01-25T08:08:00.579Z,76.75
2018-01-25T08:09:00.568Z,78.27
2018-01-25T08:10:00.558Z,77.22
2018-01-25T08:11:00.552Z,77.03
2018-01-25T08:12:00.541Z,75.60
2018-01-25T08:13:00.533Z,76.65
2018-01-25T08:14:00.562Z,76.75
2018-01-25T08:15:00.520Z,77.22
2018-01-25T08:16:00.506Z,77.03
2018-01-25T08:17:00.493Z,76.27
2018-01-25T08:18:00.499Z,77.12
2018-01-25T08:19:00.491Z,76.65
2018-01-25T08:20:00.480Z,77.31
2018-01-25T08:21:00.452Z,78.17
2018-01-25T08:22:00.445Z,77.22
2018-01-25T08:23:00.437Z,78.08
2018-01-25T08:24:00.455Z,77.79
2018-01-25T08:25:00.414Z,78.27
2018-01-25T08:26:00.421Z,77.41
2018-01-25T08:27:00.394Z,78.64
2018-01-25T08:28:00.386Z,79.03
2018-01-25T08:29:00.388Z,77.41
2018-01-25T08:30:00.363Z,78.45
2018-01-25T08:31:00.372Z,79.79
2018-01-25T08:32:00.341Z,78.55
2018-01-25T08:33:00.335Z,80.35
2018-01-25T08:34:00.331Z,79.41
2018-01-25T08:35:00.319Z,80.16
2018-01-25T08:36:00.312Z,80.68
2018-01-25T08:37:00.299Z,81.68
2018-01-25T08:38:00.286Z,79.69
2018-01-25T08:39:00.276Z,79.92
2018-01-25T08:40:00.274Z,79.92
2018-01-25T08:41:00.256Z,81.54
2018-01-25T08:42:00.255Z,80.68
2018-01-25T08:43:00.238Z,81.35
2018-01-25T08:44:00.228Z,81.54
2018-01-25T08:45:00.219Z,82.01
2018-01-25T08:46:00.210Z,82.92
2018-01-25T08:47:00.199Z,82.49
2018-01-25T08:48:00.190Z,83.44
2018-01-25T08:49:00.206Z,81.54
2018-01-25T08:50:00.201Z,79.63
2018-01-25T08:51:00.161Z,80.30
2018-01-25T08:52:00.151Z,80.68
2018-01-25T08:53:00.139Z,81.06
2018-01-25T08:54:00.170Z,81.35
2018-01-25T08:55:00.139Z,83.15
2018-01-25T08:56:00.114Z,80.58
2018-01-25T08:57:00.106Z,81.92
2018-01-25T08:58:00.102Z,79.73
2018-01-25T08:59:00.087Z,81.54
2018-01-25T09:00:00.076Z,80.40
2018-01-25T09:01:00.080Z,84.10
2018-01-25T09:02:00.055Z,80.49
2018-01-25T09:03:00.054Z,80.77
2018-01-25T09:04:00.043Z,82.20
2018-01-25T09:05:00.034Z,83.06
2018-01-25T09:06:00.020Z,82.77
2018-01-25T09:07:00.007Z,82.58
2018-01-25T09:08:00.007Z,81.54
2018-01-25T09:09:00.016Z,81.54
2018-01-25T09:09:59.985Z,83.91
2018-01-25T09:10:59.972Z,85.72
2018-01-25T09:11:59.977Z,83.82
2018-01-25T09:12:59.951Z,80.77
2018-01-25T09:13:59.939Z,80.77
2018-01-25T09:14:59.956Z,83.62
2018-01-25T09:15:59.932Z,80.68
2018-01-25T09:16:59.915Z,80.77
2018-01-25T09:17:59.906Z,81.92
2018-01-25T09:18:59.894Z,80.49
2018-01-25T09:19:59.888Z,81.82
2018-01-25T09:20:59.880Z,82.29
2018-01-25T09:21:59.869Z,80.02
2018-01-25T09:22:59.875Z,81.54
2018-01-25T09:23:59.847Z,81.63
2018-01-25T09:24:59.841Z,84.39
2018-01-25T09:25:59.843Z,82.96
2018-01-25T09:26:59.825Z,84.01
2018-01-25T09:27:59.810Z,80.68
2018-01-25T09:28:59.804Z,82.96
2018-01-25T09:29:59.804Z,82.58
2018-01-25T09:30:59.783Z,81.92
2018-01-25T09:31:59.773Z,83.82
2018-01-25T09:32:59.764Z,83.62
2018-01-25T09:33:59.757Z,83.06
2018-01-25T09:34:59.747Z,79.35
2018-01-25T09:35:59.810Z,80.21
2018-01-25T09:36:59.733Z,79.25
2018-01-25T09:37:59.727Z,79.06
2018-01-25T09:38:59.715Z,79.25
2018-01-25T09:39:59.698Z,79.54
2018-01-25T09:40:59.693Z,79.63
2018-01-25T09:41:59.682Z,81.44
2018-01-25T09:42:59.673Z,80.49
2018-01-25T09:43:59.657Z,80.91
2018-01-25T09:44:59.662Z,81.58
2018-01-25T09:45:59.645Z,81.20
2018-01-25T09:46:59.632Z,79.77
2018-01-25T09:47:59.627Z,80.21
2018-01-25T09:48:59.615Z,83.67
2018-01-25T09:49:59.627Z,83.95
2018-01-25T09:50:59.601Z,82.87
2018-01-25T09:51:59.591Z,80.91
2018-01-25T09:52:59.589Z,80.53
2018-01-25T09:53:59.572Z,82.91
2018-01-25T09:54:59.563Z,81.10
2018-01-25T09:55:59.556Z,83.76
2018-01-25T09:56:59.556Z,82.62
2018-01-25T09:57:59.538Z,83.19
2018-01-25T09:58:59.524Z,82.53
2018-01-25T09:59:59.536Z,83.19
2018-01-25T10:00:59.506Z,85.00
2018-01-25T10:01:59.495Z,83.67
2018-01-25T10:02:59.491Z,84.62
2018-01-25T10:03:59.484Z,84.91
2018-01-25T10:04:59.512Z,84.05
2018-01-25T10:05:59.462Z,83.10
2018-01-25T10:06:59.460Z,84.43
2018-01-25T10:07:59.446Z,81.58
2018-01-25T10:08:59.432Z,85.28
2018-01-25T10:09:59.426Z,83.10
2018-01-25T10:10:59.429Z,85.28
2018-01-25T10:11:59.433Z,83.76
2018-01-25T10:12:59.391Z,81.20
2018-01-25T10:13:59.404Z,81.96
2018-01-25T10:14:59.401Z,83.10
2018-01-25T10:15:59.384Z,83.00
2018-01-25T10:16:59.355Z,83.48
2018-01-25T10:17:59.373Z,85.86
2018-01-25T10:18:59.358Z,84.33
2018-01-25T10:19:59.341Z,80.72
2018-01-25T10:20:59.324Z,85.66
2018-01-25T10:21:59.309Z,85.19
2018-01-25T10:22:59.310Z,80.53
2018-01-25T10:23:59.293Z,82.05
2018-01-25T10:24:59.288Z,83.00
2018-01-25T10:25:59.282Z,82.15
2018-01-25T10:26:59.278Z,80.91
2018-01-25T10:27:59.257Z,83.86
2018-01-25T10:28:59.254Z,83.86
2018-01-25T10:29:59.292Z,82.43
2018-01-25T10:30:59.230Z,82.71
2018-01-25T10:31:59.227Z,87.47
2018-01-25T10:32:59.215Z,86.05
2018-01-25T10:33:59.211Z,85.38
2018-01-25T10:34:59.199Z,85.86
2018-01-25T10:35:59.184Z,84.62
2018-01-25T10:36:59.200Z,87.23
2018-01-25T10:37:59.167Z,83.39
2018-01-25T10:38:59.163Z,81.62
2018-01-25T10:39:59.166Z,88.80
2018-01-25T10:40:59.153Z,90.52
2018-01-25T10:41:59.139Z,88.18
2018-01-25T10:42:59.128Z,85.95
2018-01-25T10:43:59.120Z,87.61
2018-01-25T10:44:59.129Z,87.80
2018-01-25T10:45:59.119Z,85.99
2018-01-25T10:46:59.116Z,81.90
2018-01-25T10:47:59.097Z,84.85
2018-01-25T10:48:59.102Z,83.23
2018-01-25T10:49:59.079Z,89.32
2018-01-25T10:50:59.060Z,88.94
2018-01-25T10:51:59.047Z,87.80
2018-01-25T10:52:59.078Z,85.04
2018-01-25T10:53:59.051Z,87.52
2018-01-25T10:54:59.021Z,84.95
2018-01-25T10:55:59.012Z,84.95
2018-01-25T10:56:59.020Z,91.89
2018-01-25T10:57:59.043Z,88.37
2018-01-25T10:58:58.995Z,87.90
2018-01-25T10:59:58.998Z,84.95
2018-01-25T11:00:58.978Z,87.90
2018-01-25T11:01:58.979Z,87.23
2018-01-25T11:02:58.958Z,88.28
2018-01-25T11:03:58.946Z,90.28
2018-01-25T11:04:58.932Z,85.80
2018-01-25T11:05:58.928Z,93.04
2018-01-25T11:06:58.920Z,88.28
2018-01-25T11:07:58.920Z,88.75
2018-01-25T11:08:58.903Z,87.90
2018-01-25T11:09:58.890Z,90.56
2018-01-25T11:10:58.886Z,90.56
2018-01-25T11:11:58.875Z,85.80
2018-01-25T11:12:58.865Z,89.04
2018-01-25T11:13:58.861Z,90.75
2018-01-25T11:14:58.911Z,86.85
2018-01-25T11:15:58.845Z,89.42
2018-01-25T11:16:58.837Z,95.32
2018-01-25T11:17:58.827Z,94.18
2018-01-25T11:18:58.823Z,94.27
2018-01-25T11:19:58.812Z,91.89
2018-01-25T11:20:58.819Z,91.99
2018-01-25T11:21:58.798Z,94.46
2018-01-25T11:22:58.797Z,90.84
2018-01-25T11:23:58.781Z,84.28
2018-01-25T11:24:58.771Z,93.89
2018-01-25T11:25:58.756Z,85.71
2018-01-25T11:26:58.752Z,86.61
2018-01-25T11:27:58.741Z,86.90
2018-01-25T11:28:58.735Z,94.22
2018-01-25T11:29:58.746Z,95.98
2018-01-25T11:30:58.719Z,92.99
2018-01-25T11:31:58.708Z,93.94
2018-01-25T11:32:58.703Z,96.98
2018-01-25T11:33:58.690Z,95.56
2018-01-25T11:34:58.683Z,91.27
2018-01-25T11:35:58.698Z,89.94
2018-01-25T11:36:58.680Z,89.65
2018-01-25T11:37:58.662Z,86.61
2018-01-25T11:38:58.654Z,85.28
2018-01-25T11:39:58.648Z,89.18
2018-01-25T11:40:58.633Z,88.89
2018-01-25T11:41:58.629Z,93.74
2018-01-25T11:42:58.623Z,87.56
2018-01-25T11:43:58.617Z,92.51
2018-01-25T11:44:58.608Z,91.17
2018-01-25T11:45:58.592Z,91.08
2018-01-25T11:46:58.585Z,85.28
2018-01-25T11:47:58.578Z,87.27
2018-01-25T11:48:58.598Z,87.56
2018-01-25T11:49:58.595Z,88.32
2018-01-25T11:50:58.580Z,89.84
2018-01-25T11:51:58.542Z,92.22
2018-01-25T11:52:58.541Z,85.56
2018-01-25T11:53:58.537Z,94.51
2018-01-25T11:54:58.523Z,97.17
2018-01-25T11:55:58.514Z,98.03
2018-01-25T11:56:58.509Z,95.36
2018-01-25T11:57:58.507Z,98.22
2018-01-25T11:58:58.491Z,98.22
2018-01-25T11:59:58.488Z,98.41
2018-01-25T12:00:58.487Z,86.80
2018-01-25T12:01:58.470Z,97.74
2018-01-25T12:02:58.470Z,99.08
2018-01-25T12:03:58.490Z,98.60
2018-01-25T12:04:58.452Z,98.88
2018-01-25T12:05:58.451Z,90.13
2018-01-25T12:06:58.678Z,93.65
2018-01-25T12:07:58.422Z,94.60
2018-01-25T12:08:58.411Z,99.55
2018-01-25T12:09:58.408Z,99.99
2018-01-25T12:10:58.399Z,92.89
2018-01-25T12:11:58.390Z,95.36
2018-01-25T12:12:58.386Z,99.99
2018-01-25T12:13:58.377Z,99.36
2018-01-25T12:14:58.373Z,93.37
2018-01-25T12:15:58.360Z,99.99
2018-01-25T12:16:58.349Z,89.61
2018-01-25T12:17:58.339Z,95.84
2018-01-25T12:18:58.334Z,88.75
2018-01-25T12:19:58.334Z,95.79
2018-01-25T12:20:58.329Z,99.99
2018-01-25T12:21:58.361Z,99.99
2018-01-25T12:22:58.309Z,93.27
2018-01-25T12:23:58.295Z,99.99
2018-01-25T12:24:58.289Z,99.99
2018-01-25T12:25:58.288Z,99.99
2018-01-25T12:26:58.273Z,99.99
2018-01-25T12:27:58.270Z,97.55
2018-01-25T12:28:58.258Z,98.55
2018-01-25T12:29:58.251Z,97.55
2018-01-25T12:30:58.247Z,95.89
2018-01-25T12:31:58.233Z,97.41
2018-01-25T12:32:58.236Z,90.89
2018-01-25T12:33:58.216Z,99.99
2018-01-25T12:34:58.212Z,99.99
2018-01-25T12:35:58.200Z,98.69
2018-01-25T12:36:58.209Z,99.99
2018-01-25T12:37:58.185Z,99.55
2018-01-25T12:38:58.177Z,99.99
2018-01-25T12:39:58.170Z,99.99
2018-01-25T12:40:58.161Z,99.99
2018-01-25T12:41:58.155Z,99.84
2018-01-25T12:42:58.145Z,92.51
2018-01-25T12:43:58.132Z,99.99
2018-01-25T12:44:58.129Z,97.93
2018-01-25T12:45:58.149Z,99.99
2018-01-25T12:46:58.130Z,98.03
2018-01-25T12:47:58.104Z,97.93
2018-01-25T12:48:58.102Z,99.99
2018-01-25T12:49:58.089Z,99.99
2018-01-25T12:50:58.081Z,96.79
2018-01-25T12:51:58.069Z,90.13
2018-01-25T12:52:58.064Z,98.32
2018-01-25T12:53:58.062Z,98.74
2018-01-25T12:54:58.049Z,93.89
2018-01-25T12:55:58.045Z,99.99